createdAt,value
2022-08-01T00:03:01.399Z,20.60
2022-08-01T00:10:03.842Z,20.30
2022-08-01T00:17:07.432Z,19.90
2022-08-01T00:24:08.354Z,19.80
2022-08-01T00:31:15.979Z,19.70
2022-08-01T00:38:16.631Z,19.80
2022-08-01T00:45:17.170Z,19.80
2022-08-01T00:52:17.690Z,19.80
2022-08-01T00:59:19.306Z,19.80
2022-08-01T01:06:25.798Z,19.80
2022-08-01T01:13:50.128Z,19.80
2022-08-01T01:21:17.521Z,19.80
2022-08-01T01:28:27.286Z,19.80
2022-08-01T01:35:32.475Z,19.70
2022-08-01T01:42:34.343Z,19.70
2022-08-01T01:49:35.744Z,19.70
2022-08-01T01:56:49.385Z,19.70
2022-08-01T02:03:51.149Z,19.70
2022-08-01T02:11:12.597Z,19.70
2022-08-01T02:18:13.684Z,19.70
2022-08-01T02:25:26.244Z,19.70
2022-08-01T02:32:40.845Z,19.70
2022-08-01T02:39:41.481Z,19.70
2022-08-01T02:46:53.592Z,19.70
2022-08-01T02:53:55.836Z,19.70
2022-08-01T03:00:58.049Z,19.70
2022-08-01T03:08:02.781Z,19.70
2022-08-01T03:15:06.206Z,19.70
2022-08-01T03:22:12.384Z,19.70
2022-08-01T03:29:20.952Z,19.70
2022-08-01T03:36:27.822Z,19.70
2022-08-01T03:43:36.339Z,19.70
2022-08-01T03:50:40.391Z,19.70
2022-08-01T03:57:42.064Z,19.70
2022-08-01T04:04:43.723Z,19.60
2022-08-01T04:11:44.586Z,19.60
2022-08-01T04:18:45.018Z,19.60
2022-08-01T04:25:47.429Z,19.60
2022-08-01T04:32:48.425Z,19.60
2022-08-01T04:39:50.174Z,19.60
2022-08-01T04:46:55.543Z,19.70
2022-08-01T04:53:57.430Z,19.60
2022-08-01T05:00:58.353Z,19.60
2022-08-01T05:07:58.952Z,19.70
2022-08-01T05:15:00.651Z,19.70
2022-08-01T05:22:06.901Z,19.70
2022-08-01T05:29:07.519Z,19.70
2022-08-01T05:36:08.165Z,19.70
2022-08-01T05:43:08.751Z,19.70
2022-08-01T05:50:09.762Z,19.70
2022-08-01T05:57:11.158Z,19.80
2022-08-01T06:04:12.854Z,19.80
2022-08-01T06:11:13.672Z,19.90
2022-08-01T06:18:15.075Z,20.00
2022-08-01T06:25:18.409Z,20.20
2022-08-01T06:32:26.863Z,20.20
2022-08-01T06:39:27.773Z,20.40
2022-08-01T06:46:30.547Z,20.60
2022-08-01T06:53:36.576Z,20.70
2022-08-01T07:00:37.334Z,20.90
2022-08-01T07:07:39.156Z,20.90
2022-08-01T07:14:39.773Z,20.80
2022-08-01T07:21:41.902Z,20.80
2022-08-01T07:28:43.994Z,20.80
2022-08-01T07:35:44.576Z,20.90
2022-08-01T07:42:45.844Z,21.00
2022-08-01T07:49:46.288Z,21.10
2022-08-01T07:56:46.766Z,21.10
2022-08-01T08:03:47.419Z,21.20
2022-08-01T08:10:48.073Z,21.40
2022-08-01T08:17:54.893Z,21.40
2022-08-01T08:24:56.106Z,21.70
2022-08-01T08:32:02.017Z,22.10
2022-08-01T08:39:02.882Z,22.20
2022-08-01T08:46:04.337Z,22.40
2022-08-01T08:53:06.604Z,22.30
2022-08-01T09:00:08.434Z,22.50
2022-08-01T09:07:09.720Z,22.50
2022-08-01T09:14:33.516Z,22.60
2022-08-01T09:21:33.949Z,22.80
2022-08-01T09:28:34.715Z,22.90
2022-08-01T09:35:43.491Z,22.90
2022-08-01T09:42:44.373Z,22.90
2022-08-01T09:49:50.843Z,23.00
2022-08-01T09:56:52.893Z,23.30
2022-08-01T10:04:25.762Z,23.40
2022-08-01T10:11:36.548Z,23.40
2022-08-01T10:18:40.927Z,23.70
2022-08-01T10:25:47.015Z,23.80
2022-08-01T10:32:50.993Z,23.70
2022-08-01T10:40:14.461Z,23.80
2022-08-01T10:47:50.028Z,24.00
2022-08-01T10:54:52.884Z,24.10
2022-08-01T11:02:01.812Z,24.00
2022-08-01T11:09:06.204Z,24.30
2022-08-01T11:16:28.512Z,24.60
2022-08-01T11:23:35.932Z,24.90
2022-08-01T11:30:37.194Z,24.70
2022-08-01T11:37:39.912Z,24.40
2022-08-01T11:44:52.222Z,24.50
2022-08-01T11:52:07.413Z,24.60
2022-08-01T11:59:15.174Z,24.90
2022-08-01T12:06:28.789Z,25.20
2022-08-01T12:13:39.728Z,24.90
2022-08-01T12:20:56.022Z,25.00
2022-08-01T12:28:03.974Z,25.30
2022-08-01T12:35:06.682Z,25.70
2022-08-01T12:42:11.629Z,26.00
2022-08-01T12:49:12.597Z,26.40
2022-08-01T12:56:13.483Z,26.30
2022-08-01T13:03:18.240Z,26.20
2022-08-01T13:10:30.136Z,26.30
2022-08-01T13:17:39.518Z,26.30
2022-08-01T13:24:40.071Z,26.70
2022-08-01T13:31:41.826Z,26.30
2022-08-01T13:39:01.557Z,26.50
2022-08-01T13:46:04.791Z,26.70
2022-08-01T13:53:05.897Z,26.90
2022-08-01T14:00:14.583Z,27.40
2022-08-01T14:07:15.352Z,27.50
2022-08-01T14:14:16.036Z,27.60
2022-08-01T14:21:16.698Z,27.70
2022-08-01T14:28:17.654Z,27.70
2022-08-01T14:35:18.048Z,27.50
2022-08-01T14:42:18.464Z,27.20
2022-08-01T14:49:19.052Z,26.80
2022-08-01T14:56:19.507Z,26.60
2022-08-01T15:03:19.927Z,26.40
2022-08-01T15:10:20.506Z,26.60
2022-08-01T15:17:31.753Z,26.60
2022-08-01T15:24:32.365Z,26.50
2022-08-01T15:31:32.961Z,26.50
2022-08-01T15:38:33.318Z,26.60
2022-08-01T15:45:49.415Z,26.30
2022-08-01T15:52:49.730Z,26.30
2022-08-01T15:59:50.502Z,26.20
2022-08-01T16:06:51.183Z,25.90
2022-08-01T16:13:51.969Z,25.80
2022-08-01T16:20:52.615Z,25.80
2022-08-01T16:27:53.065Z,26.20
2022-08-01T16:34:53.830Z,26.30
2022-08-01T16:41:55.553Z,26.10
2022-08-01T16:48:56.097Z,25.70
2022-08-01T16:55:56.557Z,25.50
2022-08-01T17:02:56.898Z,25.20
2022-08-01T17:09:58.078Z,24.90
2022-08-01T17:16:58.817Z,24.90
2022-08-01T17:23:59.546Z,24.90
2022-08-01T17:31:00.038Z,24.90
2022-08-01T17:38:00.696Z,25.10
2022-08-01T17:45:01.310Z,25.30
2022-08-01T17:52:04.053Z,25.50
2022-08-01T17:59:04.661Z,25.30
2022-08-01T18:06:05.100Z,25.10
2022-08-01T18:13:05.853Z,25.20
2022-08-01T18:20:07.413Z,25.10
2022-08-01T18:27:08.517Z,25.00
2022-08-01T18:34:10.008Z,24.80
2022-08-01T18:41:10.842Z,24.90
2022-08-01T18:48:11.929Z,24.70
2022-08-01T18:55:12.220Z,24.50
2022-08-01T19:02:12.638Z,24.20
2022-08-01T19:09:13.115Z,23.90
2022-08-01T19:16:21.468Z,23.50
2022-08-01T19:23:40.567Z,23.10
2022-08-01T19:30:41.072Z,22.90
2022-08-01T19:37:47.774Z,22.60
2022-08-01T19:44:49.030Z,22.50
2022-08-01T19:51:52.537Z,22.20
2022-08-01T19:59:00.313Z,22.00
2022-08-01T20:06:05.431Z,21.80
2022-08-01T20:13:09.554Z,21.70
2022-08-01T20:20:10.868Z,21.50
2022-08-01T20:27:13.337Z,21.40
2022-08-01T20:34:17.928Z,21.20
2022-08-01T20:41:19.302Z,20.90
2022-08-01T20:48:20.370Z,20.70
2022-08-01T20:55:22.381Z,20.50
2022-08-01T21:03:02.601Z,20.30
2022-08-01T21:10:13.165Z,20.20
2022-08-01T21:17:38.111Z,20.00
2022-08-01T21:24:46.010Z,19.90
2022-08-01T21:32:12.662Z,19.70
2022-08-01T21:39:13.882Z,19.60
2022-08-01T21:46:17.169Z,19.40
2022-08-01T21:53:38.515Z,19.20
2022-08-01T22:00:52.200Z,19.00
2022-08-01T22:07:56.648Z,18.80
2022-08-01T22:15:01.069Z,18.60
2022-08-01T22:22:03.369Z,18.50
2022-08-01T22:29:29.163Z,18.40
2022-08-01T22:36:31.650Z,18.20
2022-08-01T22:43:44.312Z,18.10
2022-08-01T22:50:49.572Z,18.00
2022-08-01T22:58:01.750Z,17.80
2022-08-01T23:05:05.297Z,17.60
2022-08-01T23:12:06.466Z,17.50
2022-08-01T23:19:09.240Z,17.40
2022-08-01T23:26:11.012Z,17.30
2022-08-01T23:33:11.434Z,17.10
2022-08-01T23:40:15.402Z,17.00
2022-08-01T23:47:15.908Z,16.90
2022-08-01T23:54:16.456Z,16.80
